Time;durP1;ratioP1;P1;durP2;ratioP2;P2;SDS_P1;SDS_P2;PMS_P1;PMS_P2;Temp;Humidity;BMP_temperature;BMP_pressure;BME280_temperature;BME280_humidity;BME280_pressure;Samples;Min_cycle;Max_cycle;Signal;HPM_P1;HPM_P2
2022/11/14 00:03:06;;;;;;;44.25;25.13;;;7.10;99.90;;;;;;6307232;22;20495;-92
2022/11/14 00:06:07;;;;;;;45.28;25.70;;;6.50;99.90;;;;;;6308434;22;20454;-91
2022/11/14 00:08:25;;;;;;;42.63;25.35;;;6.50;99.90;;;;;;6306263;22;20022;-91
2022/11/14 00:11:21;;;;;;;;;;;;;;;;;;;;;
2022/11/14 00:14:16;;;;;;;47.13;24.80;;;6.10;99.90;;;;;;6325620;22;20015;-91
2022/11/14 00:16:47;;;;;;;43.33;26.17;;;6.50;99.90;;;;;;6306980;22;20026;-89
2022/11/14 00:19:16;;;;;;;47.17;28.05;;;6.90;99.90;;;;;;6305977;22;20358;-90
2022/11/14 00:21:54;;;;;;;;;;;;;;;;;;;;;
2022/11/14 00:24:36;;;;;;;;;;;;;;;;;;;;;
2022/11/14 00:27:04;;;;;;;46.28;27.80;;;6.60;99.90;;;;;;6332504;22;20023;-91
2022/11/14 00:29:32;;;;;;;48.60;27.73;;;6.60;99.90;;;;;;6308325;22;20048;-91
2022/11/14 00:32:10;;;;;;;46.22;27.98;;;7.10;99.90;;;;;;6308616;22;20018;-91
2022/11/14 00:34:47;;;;;;;47.65;26.77;;;6.60;99.90;;;;;;6308537;22;20015;-91
2022/11/14 00:37:18;;;;;;;51.50;30.15;;;7.40;99.90;;;;;;6308693;22;20126;-91
2022/11/14 00:40:13;;;;;;;49.20;28.40;;;7.50;99.90;;;;;;6307827;22;20044;-92
2022/11/14 00:43:03;;;;;;;;;;;;;;;;;;;;;
2022/11/14 00:46:07;;;;;;;45.42;28.23;;;6.70;99.90;;;;;;6334907;22;20022;-91
2022/11/14 00:48:39;;;;;;;;;;;;;;;;;;;;;
2022/11/14 00:51:15;;;;;;;49.95;29.17;;;6.30;99.90;;;;;;6335308;22;20069;-90
2022/11/14 00:54:21;;;;;;;47.35;29.83;;;6.80;99.90;;;;;;6307491;22;20296;-90
2022/11/14 00:56:58;;;;;;;46.65;29.00;;;6.60;99.90;;;;;;6308674;22;20015;-91
2022/11/14 00:59:29;;;;;;;52.75;31.30;;;6.70;99.90;;;;;;6309238;22;20015;-91
2022/11/14 01:01:57;;;;;;;46.67;29.02;;;6.60;99.90;;;;;;6308078;22;20011;-91
2022/11/14 01:04:25;;;;;;;49.33;28.23;;;7.60;99.90;;;;;;6308680;22;20404;-91
2022/11/14 01:06:58;;;;;;;50.13;30.13;;;6.60;99.90;;;;;;6307892;22;20083;-90
2022/11/14 01:09:26;;;;;;;48.65;30.27;;;6.70;99.90;;;;;;6307937;22;20019;-91
2022/11/14 01:11:52;;;;;;;53.20;32.20;;;7.30;99.90;;;;;;6308298;22;20046;-91
2022/11/14 01:14:18;;;;;;;51.05;32.13;;;7.60;99.90;;;;;;6308926;22;20095;-90
2022/11/14 01:16:46;;;;;;;49.85;32.72;;;6.80;99.90;;;;;;6306727;22;20014;-91
2022/11/14 01:19:15;;;;;;;57.33;34.17;;;6.80;99.90;;;;;;6309205;22;20458;-91
2022/11/14 01:21:43;;;;;;;57.65;34.85;;;6.80;99.90;;;;;;6307302;22;20019;-91
2022/11/14 01:24:10;;;;;;;60.05;37.65;;;7.40;99.90;;;;;;6308715;22;20026;-91
2022/11/14 01:26:46;;;;;;;55.47;35.35;;;6.80;99.90;;;;;;6308067;22;20023;-90
2022/11/14 01:29:16;;;;;;;56.53;36.20;;;7.60;99.90;;;;;;6308111;22;20068;-90
2022/11/14 01:31:55;;;;;;;;;;;;;;;;;;;;;
2022/11/14 01:34:43;;;;;;;60.65;37.10;;;6.70;99.90;;;;;;6334407;22;20025;-91
2022/11/14 01:37:11;;;;;;;60.17;39.28;;;6.60;99.90;;;;;;6307248;22;20065;-90
2022/11/14 01:39:37;;;;;;;63.92;39.38;;;7.60;99.90;;;;;;6308217;22;20117;-91
2022/11/14 01:42:05;;;;;;;61.03;39.30;;;7.10;99.90;;;;;;6308296;22;20375;-90
2022/11/14 01:44:52;;;;;;;62.53;39.25;;;6.60;99.90;;;;;;6333656;22;20073;-91
2022/11/14 01:47:23;;;;;;;63.67;39.30;;;7.10;99.90;;;;;;6307690;22;20080;-89
2022/11/14 01:49:54;;;;;;;66.80;41.50;;;7.30;99.90;;;;;;6307015;22;20241;-91
2022/11/14 01:52:58;;;;;;;62.75;40.28;;;6.60;99.90;;;;;;6307780;22;20072;-90
2022/11/14 01:55:41;;;;;;;;;;;;;;;;;;;;;
2022/11/14 01:58:17;;;;;;;65.85;42.78;;;7.00;99.90;;;;;;6332943;22;20392;-90
2022/11/14 02:00:50;;;;;;;69.13;42.95;;;7.40;99.90;;;;;;6308317;22;20101;-90
2022/11/14 02:03:17;;;;;;;69.03;43.55;;;6.40;99.90;;;;;;6307119;22;20090;-90
2022/11/14 02:06:04;;;;;;;;;;;;;;;;;;;;;
2022/11/14 02:09:01;;;;;;;70.68;43.97;;;6.40;99.90;;;;;;6334061;22;20043;-90
2022/11/14 02:11:47;;;;;;;74.65;42.28;;;6.80;99.90;;;;;;6307784;22;20019;-90
2022/11/14 02:14:24;;;;;;;79.77;44.60;;;6.50;99.90;;;;;;6308563;22;20114;-90
2022/11/14 02:16:53;;;;;;;71.97;43.22;;;6.40;99.90;;;;;;6307222;22;20079;-91
2022/11/14 02:19:31;;;;;;;;;;;;;;;;;;;;;
2022/11/14 02:21:59;;;;;;;78.35;43.03;;;6.40;99.90;;;;;;6333354;22;20015;-91
2022/11/14 02:24:45;;;;;;;68.60;41.67;;;6.70;99.90;;;;;;6308140;22;20042;-91
2022/11/14 02:27:19;;;;;;;69.00;41.42;;;6.40;99.90;;;;;;6293336;22;20407;-90
2022/11/14 02:29:45;;;;;;;69.38;41.25;;;6.50;99.90;;;;;;6307686;22;20326;-90
2022/11/14 02:32:36;;;;;;;73.10;42.97;;;6.60;99.90;;;;;;6306655;22;20021;-90
2022/11/14 02:35:27;;;;;;;72.85;42.15;;;6.20;99.90;;;;;;6307357;22;20022;-90
2022/11/14 02:38:21;;;;;;;;;;;;;;;;;;;;;
2022/11/14 02:40:47;;;;;;;67.75;40.33;;;6.80;99.90;;;;;;6332672;22;20013;-91
2022/11/14 02:43:15;;;;;;;72.32;41.67;;;7.00;99.90;;;;;;6307999;22;20332;-90
2022/11/14 02:45:41;;;;;;;74.30;41.65;;;6.50;99.90;;;;;;6307571;22;20023;-90
2022/11/14 02:48:11;;;;;;;69.63;40.05;;;6.20;99.90;;;;;;6305712;22;20151;-90
2022/11/14 02:50:42;;;;;;;75.13;41.22;;;6.70;99.90;;;;;;6307524;22;20014;-90
2022/11/14 02:53:20;;;;;;;;;;;;;;;;;;;;;
2022/11/14 02:55:48;;;;;;;69.32;39.58;;;6.40;99.90;;;;;;6333213;22;20011;-90
2022/11/14 02:58:14;;;;;;;69.22;42.17;;;7.00;99.90;;;;;;6307758;22;20429;-90
2022/11/14 03:00:40;;;;;;;69.68;39.72;;;7.00;99.90;;;;;;6306575;22;20090;-90
2022/11/14 03:03:10;;;;;;;70.05;40.80;;;7.30;99.90;;;;;;6306663;22;20030;-89
2022/11/14 03:05:55;;;;;;;;;;;;;;;;;;;;;
2022/11/14 03:09:17;;;;;;;72.57;40.67;;;6.90;99.90;;;;;;6333529;22;20440;-90
2022/11/14 03:11:45;;;;;;;65.28;39.00;;;7.20;99.90;;;;;;6236084;22;20064;-90
2022/11/14 03:14:32;;;;;;;;;;;;;;;;;;;;;
2022/11/14 03:17:26;;;;;;;;;;;;;;;;;;;;;
2022/11/14 03:20:04;;;;;;;;;;;;;;;;;;;;;
2022/11/14 03:22:41;;;;;;;65.20;38.70;;;6.60;99.90;;;;;;6331450;22;20338;-90
2022/11/14 03:25:08;;;;;;;66.68;39.78;;;7.10;99.90;;;;;;6307887;22;20050;-90
2022/11/14 03:27:51;;;;;;;63.72;38.50;;;6.70;99.90;;;;;;6307665;22;20423;-90
2022/11/14 03:30:45;;;;;;;;;;;6.70;99.90;;;;;;6307471;22;20023;-91
2022/11/14 03:33:13;;;;;;;68.80;40.25;;;6.80;99.90;;;;;;6331757;22;19994;-91
2022/11/14 03:35:54;;;;;;;;;;;;;;;;;;;;;
2022/11/14 03:38:46;;;;;;;64.85;39.58;;;6.70;99.90;;;;;;6333771;22;20110;-90
2022/11/14 03:41:34;;;;;;;66.13;39.80;;;7.20;99.90;;;;;;6295162;22;20026;-90
2022/11/14 03:44:15;;;;;;;;;;;;;;;;;;;;;
2022/11/14 03:47:07;;;;;;;65.32;39.40;;;6.50;99.90;;;;;;6332649;22;20014;-90
2022/11/14 03:49:43;;;;;;;66.10;38.03;;;6.60;99.90;;;;;;6306682;22;20019;-90
2022/11/14 03:53:10;;;;;;;;;;;;;;;;;;;;;
2022/11/14 03:55:12;;;;;;;62.75;38.42;;;6.70;99.90;;;;;;6317840;22;20030;-90
2022/11/14 03:57:38;;;;;;;64.68;38.97;;;6.90;99.90;;;;;;6306362;22;20037;-90
2022/11/14 04:00:22;;;;;;;65.57;39.15;;;6.80;99.90;;;;;;6307519;22;20477;-90
2022/11/14 04:03:00;;;;;;;;;;;;;;;;;;;;;
2022/11/14 04:05:54;;;;;;;;;;;;;;;;;;;;;
2022/11/14 04:09:12;;;;;;;66.13;39.78;;;7.80;99.90;;;;;;6335601;22;20022;-90
2022/11/14 04:11:16;;;;;;;69.20;41.50;;;7.40;99.90;;;;;;6313763;22;20068;-92
2022/11/14 04:13:52;;;;;;;;;;;;;;;;;;;;;
2022/11/14 04:16:45;;;;;;;;;;;;;;;;;;;;;
2022/11/14 04:19:13;;;;;;;69.53;40.70;;;6.70;99.90;;;;;;6334258;22;20503;-89
2022/11/14 04:21:42;;;;;;;63.25;39.53;;;6.70;99.90;;;;;;6308845;22;20018;-91
2022/11/14 04:24:07;;;;;;;61.95;39.85;;;6.60;99.90;;;;;;6309218;22;20010;-91
2022/11/14 04:26:43;;;;;;;63.60;42.92;;;6.70;99.90;;;;;;6308899;22;20098;-90
2022/11/14 04:29:18;;;;;;;;;;;;;;;;;;;;;
2022/11/14 04:31:55;;;;;;;;;;;;;;;;;;;;;
2022/11/14 04:34:41;;;;;;;63.40;42.78;;;7.80;99.90;;;;;;6334498;22;20017;-91
2022/11/14 04:37:29;;;;;;;60.60;39.22;;;6.10;99.90;;;;;;6308833;22;20046;-91
2022/11/14 04:40:02;;;;;;;65.95;39.83;;;6.30;99.90;;;;;;6307977;22;20342;-90
2022/11/14 04:42:48;;;;;;;60.60;38.97;;;7.20;99.90;;;;;;6308237;22;20101;-90
2022/11/14 04:46:19;;;;;;;62.42;39.97;;;6.30;99.90;;;;;;6309282;22;20453;-90
2022/11/14 04:48:52;;;;;;;;;;;;;;;;;;;;;
2022/11/14 04:51:31;;;;;;;;;;;;;;;;;;;;;
2022/11/14 04:54:13;;;;;;;61.95;39.60;;;6.60;99.90;;;;;;6333603;22;20015;-90
2022/11/14 04:56:44;;;;;;;59.60;38.90;;;6.30;99.90;;;;;;6308858;22;20042;-91
2022/11/14 04:59:37;;;;;;;58.72;39.08;;;6.60;99.90;;;;;;6308730;22;20101;-90
2022/11/14 05:02:21;;;;;;;;;;;;;;;;;;;;;
2022/11/14 05:05:18;;;;;;;55.03;35.45;;;7.20;99.90;;;;;;6333936;22;20015;-90
2022/11/14 05:07:55;;;;;;;55.58;36.50;;;7.60;99.90;;;;;;6307112;22;20018;-90
2022/11/14 05:10:22;;;;;;;60.60;37.70;;;6.40;99.90;;;;;;6308347;22;20366;-89
2022/11/14 05:12:59;;;;;;;62.88;38.05;;;7.20;99.90;;;;;;6307865;22;20015;-89
2022/11/14 05:15:54;;;;;;;57.95;37.33;;;6.60;99.90;;;;;;6309182;22;20046;-90
2022/11/14 05:19:05;;;;;;;58.15;39.13;;;6.40;99.90;;;;;;6308428;22;20019;-90
2022/11/14 05:21:34;;;;;;;58.22;37.83;;;5.70;99.90;;;;;;6307508;22;20026;-89
2022/11/14 05:24:02;;;;;;;55.90;36.25;;;6.50;99.90;;;;;;6308244;22;20356;-90
2022/11/14 05:26:31;;;;;;;61.70;38.13;;;6.50;99.90;;;;;;6306216;22;20057;-90
2022/11/14 05:29:07;;;;;;;59.33;37.78;;;6.50;99.90;;;;;;6307657;22;20097;-89
2022/11/14 05:31:41;;;;;;;58.55;37.35;;;7.30;99.90;;;;;;6307196;22;20025;-90
2022/11/14 05:34:14;;;;;;;56.75;36.40;;;6.40;99.90;;;;;;6307721;22;20101;-91
2022/11/14 05:36:42;;;;;;;54.80;35.83;;;6.40;99.90;;;;;;6307686;22;20057;-91
2022/11/14 05:39:27;;;;;;;61.25;37.10;;;7.10;99.90;;;;;;6306999;22;20027;-91
2022/11/14 05:41:53;;;;;;;58.53;37.22;;;6.40;99.90;;;;;;6306680;22;20023;-90
2022/11/14 05:44:29;;;;;;;;;;;;;;;;;;;;;
2022/11/14 05:46:59;;;;;;;60.08;36.95;;;6.40;99.90;;;;;;6334012;22;20018;-91
2022/11/14 05:49:30;;;;;;;62.25;38.17;;;7.00;99.90;;;;;;6307365;22;20050;-91
2022/11/14 05:51:56;;;;;;;59.63;37.85;;;7.20;99.90;;;;;;6308342;22;20049;-91
2022/11/14 05:54:21;;;;;;;61.22;37.67;;;6.30;99.90;;;;;;6308703;22;20113;-92
2022/11/14 05:57:08;;;;;;;57.90;37.63;;;7.50;99.90;;;;;;6307379;22;20335;-91
2022/11/14 05:59:45;;;;;;;;;;;;;;;;;;;;;
2022/11/14 06:02:13;;;;;;;67.55;37.33;;;6.40;99.90;;;;;;6333719;22;20011;-90
2022/11/14 06:04:39;;;;;;;61.95;36.60;;;6.80;99.90;;;;;;6307068;22;20078;-90
2022/11/14 06:07:08;;;;;;;58.80;36.38;;;6.30;99.90;;;;;;6308118;22;20083;-91
2022/11/14 06:09:34;;;;;;;66.68;37.35;;;6.30;99.90;;;;;;6308669;22;20018;-91
2022/11/14 06:12:10;;;;;;;61.53;36.72;;;6.70;99.90;;;;;;6308109;22;20025;-91
2022/11/14 06:14:36;;;;;;;60.63;36.97;;;7.10;99.90;;;;;;6308684;22;20330;-91
2022/11/14 06:17:04;;;;;;;63.25;39.85;;;6.30;99.90;;;;;;6307549;22;20019;-90
2022/11/14 06:19:39;;;;;;;67.22;40.05;;;6.30;99.90;;;;;;6307500;22;20528;-91
2022/11/14 06:22:05;;;;;;;67.32;37.85;;;6.70;99.90;;;;;;6307864;22;20116;-91
2022/11/14 06:24:35;;;;;;;65.93;38.60;;;7.00;99.90;;;;;;6306881;22;20033;-91
2022/11/14 06:27:10;;;;;;;60.15;37.38;;;6.60;99.90;;;;;;6307990;22;20078;-92
2022/11/14 06:29:40;;;;;;;62.35;36.30;;;7.10;99.90;;;;;;6307798;22;20014;-91
2022/11/14 06:32:08;;;;;;;66.57;37.72;;;6.20;99.90;;;;;;6307195;22;20019;-91
2022/11/14 06:34:36;;;;;;;64.13;35.97;;;6.40;99.90;;;;;;6307099;22;20019;-91
2022/11/14 06:37:06;;;;;;;63.38;38.17;;;6.90;99.90;;;;;;6307555;22;20544;-91
2022/11/14 06:39:33;;;;;;;66.93;37.80;;;6.20;99.90;;;;;;6306440;22;20072;-91
2022/11/14 06:42:04;;;;;;;67.60;38.47;;;6.30;99.90;;;;;;6308024;22;20079;-92
2022/11/14 06:44:30;;;;;;;67.90;37.85;;;7.10;99.90;;;;;;6307551;22;20018;-92
2022/11/14 06:46:58;;;;;;;67.35;38.03;;;6.00;99.90;;;;;;6307126;22;20156;-91
2022/11/14 06:49:24;;;;;;;66.60;38.45;;;7.00;99.90;;;;;;6307962;22;20018;-92
2022/11/14 06:51:50;;;;;;;70.63;38.35;;;6.70;99.90;;;;;;6307928;22;20105;-92
2022/11/14 06:54:16;;;;;;;68.25;38.97;;;6.10;99.90;;;;;;6307374;22;20017;-91
2022/11/14 06:56:42;;;;;;;64.05;37.60;;;4.90;99.90;;;;;;6308669;22;20054;-91
2022/11/14 06:59:17;;;;;;;68.30;37.90;;;7.00;99.90;;;;;;6307519;22;20526;-91
2022/11/14 07:01:51;;;;;;;65.70;37.83;;;6.20;99.90;;;;;;6307897;22;20019;-92
2022/11/14 07:04:26;;;;;;;;;;;6.00;99.90;;;;;;6307526;22;20462;-91
2022/11/14 07:06:52;;;;;;;70.80;36.63;;;6.10;99.90;;;;;;6306730;22;20379;-91
2022/11/14 07:09:25;;;;;;;66.07;36.15;;;6.00;99.90;;;;;;6307971;22;20097;-91
2022/11/14 07:11:51;;;;;;;74.05;38.17;;;6.00;99.90;;;;;;6307108;22;20093;-92
2022/11/14 07:14:17;;;;;;;75.65;39.08;;;5.70;99.90;;;;;;6307729;22;20053;-91
2022/11/14 07:16:43;;;;;;;72.93;38.05;;;5.80;99.90;;;;;;6306903;22;20342;-91
2022/11/14 07:19:11;;;;;;;76.40;41.28;;;6.00;99.90;;;;;;6306990;22;20063;-91
2022/11/14 07:21:40;;;;;;;72.22;39.83;;;6.00;99.90;;;;;;6307128;22;20067;-91
2022/11/14 07:24:06;;;;;;;74.40;39.50;;;6.00;99.90;;;;;;6307336;22;20052;-91
2022/11/14 07:26:34;;;;;;;65.05;36.72;;;6.10;99.90;;;;;;6308068;22;20046;-91
2022/11/14 07:29:02;;;;;;;70.93;37.08;;;6.90;99.90;;;;;;6306701;22;20464;-90
2022/11/14 07:31:31;;;;;;;72.22;38.33;;;7.20;99.90;;;;;;6307561;22;20019;-91
2022/11/14 07:34:09;;;;;;;;;;;;;;;;;;;;;
2022/11/14 07:36:35;;;;;;;72.93;38.22;;;6.10;99.90;;;;;;6332930;22;20010;-91
2022/11/14 07:39:04;;;;;;;70.53;38.72;;;6.00;99.90;;;;;;6307558;22;20018;-91
2022/11/14 07:41:37;;;;;;;63.25;36.33;;;6.00;99.90;;;;;;6307539;22;20011;-92
2022/11/14 07:44:03;;;;;;;68.10;38.30;;;6.00;99.90;;;;;;6307894;22;20014;-93
2022/11/14 07:46:32;;;;;;;66.00;36.72;;;5.60;99.90;;;;;;6307419;22;20061;-91
2022/11/14 07:49:03;;;;;;;70.75;36.90;;;6.80;99.90;;;;;;6305942;22;20046;-91
2022/11/14 07:51:34;;;;;;;66.18;36.90;;;6.10;99.90;;;;;;6306841;22;20462;-90
2022/11/14 07:54:00;;;;;;;66.03;37.30;;;6.00;99.90;;;;;;6307361;22;20143;-91
2022/11/14 07:56:26;;;;;;;66.40;36.42;;;6.90;99.90;;;;;;6307379;22;20046;-90
2022/11/14 08:03:14;;;;;;;63.10;36.50;;;6.10;99.90;;;;;;6340691;22;20460;-96
2022/11/14 08:44:37;;;;;;;;;;;;;;;;;;;;;
2022/11/14 08:48:10;;;;;;;66.25;38.10;;;6.30;99.90;;;;;;5961577;23;20014;-96
2022/11/14 09:32:08;;;;;;;54.65;33.38;;;6.70;99.90;;;;;;6274003;22;20817;-87
2022/11/14 12:47:20;;;;;;;43.03;28.98;;;8.00;99.90;;;;;;6290680;22;20133;-91
2022/11/14 12:49:46;;;;;;;43.17;29.50;;;8.40;99.90;;;;;;6285440;22;20047;-94
2022/11/14 12:52:44;;;;;;;40.20;27.85;;;8.50;99.90;;;;;;6287349;22;20133;-94
2022/11/14 12:59:52;;;;;;;39.53;27.10;;;8.20;99.90;;;;;;6220906;23;20360;-96
2022/11/14 15:43:48;;;;;;;41.90;29.15;;;6.70;99.90;;;;;;6128349;23;20025;-95
2022/11/14 15:48:59;;;;;;;39.50;25.85;;;6.60;99.90;;;;;;6273768;22;20020;-92
2022/11/14 15:52:24;;;;;;;38.85;24.23;;;7.20;99.90;;;;;;6255804;22;20010;-92
2022/11/14 15:55:03;;;;;;;;;;;;;;;;;;;;;
2022/11/14 15:57:53;;;;;;;39.83;27.10;;;6.10;99.90;;;;;;6219721;22;20027;-91
2022/11/14 16:00:34;;;;;;;;;;;;;;;;;;;;;
2022/11/14 16:15:28;;;;;;;43.88;29.05;;;6.90;99.90;;;;;;6274071;22;20046;-90
2022/11/14 17:16:05;;;;;;;;;;;;;;;;;;;;;
2022/11/14 17:23:40;;;;;;;;;;;;;;;;;;;;;
2022/11/14 20:10:46;;;;;;;48.10;29.30;;;6.80;99.90;;;;;;6272082;22;20869;-93
2022/11/14 20:13:46;;;;;;;43.95;28.80;;;6.80;99.90;;;;;;6198529;23;20046;-93
2022/11/14 20:16:23;;;;;;;46.03;28.85;;;6.80;99.90;;;;;;6191556;23;20445;-94
2022/11/14 20:18:50;;;;;;;49.67;30.75;;;6.80;99.90;;;;;;6192636;23;20031;-92
2022/11/14 20:21:28;;;;;;;47.85;29.65;;;6.80;99.90;;;;;;6195173;23;20072;-95
2022/11/14 20:23:57;;;;;;;47.00;29.63;;;7.20;99.90;;;;;;6219085;23;20119;-96
2022/11/14 20:26:38;;;;;;;43.05;29.05;;;6.90;99.90;;;;;;6192916;23;20019;-92
2022/11/14 20:33:03;;;;;;;44.58;28.38;;;6.90;99.90;;;;;;6253669;22;20233;-96
2022/11/14 20:35:36;;;;;;;46.85;29.42;;;6.30;99.90;;;;;;6256880;22;20023;-96
2022/11/14 20:38:04;;;;;;;45.78;28.55;;;6.90;99.90;;;;;;6221578;22;20108;-91
2022/11/14 20:40:30;;;;;;;44.30;30.20;;;6.90;99.90;;;;;;6223023;22;20094;-93
2022/11/14 20:43:06;;;;;;;48.30;30.45;;;7.00;99.90;;;;;;6223843;22;20020;-96
2022/11/14 20:45:53;;;;;;;50.63;30.80;;;6.90;99.90;;;;;;6278646;22;20030;-93
2022/11/14 20:48:22;;;;;;;44.80;29.30;;;6.90;99.90;;;;;;6223465;22;20019;-91
2022/11/14 20:50:47;;;;;;;49.30;30.48;;;7.00;99.90;;;;;;6222416;22;20023;-91
2022/11/14 20:53:13;;;;;;;47.90;30.73;;;7.00;99.90;;;;;;6249289;22;20081;-92
2022/11/14 20:55:39;;;;;;;48.22;32.22;;;7.00;99.90;;;;;;6248564;22;20077;-92
2022/11/14 20:58:05;;;;;;;57.65;34.17;;;7.00;99.90;;;;;;6248112;22;20086;-92
2022/11/14 21:00:31;;;;;;;69.05;38.95;;;7.00;99.90;;;;;;6249314;22;20035;-91
2022/11/14 21:02:57;;;;;;;128.82;77.70;;;7.90;99.90;;;;;;6248351;22;20016;-92
2022/11/14 21:05:26;;;;;;;81.05;53.78;;;7.10;99.90;;;;;;6248062;22;20026;-92
2022/11/14 21:07:52;;;;;;;74.75;43.40;;;7.00;99.90;;;;;;6246147;22;20106;-91
2022/11/14 21:14:00;;;;;;;51.30;31.15;;;7.00;99.90;;;;;;6187030;22;20348;-95
2022/11/14 21:16:55;;;;;;;39.45;26.80;;;7.10;99.90;;;;;;6246689;22;20015;-94
2022/11/14 21:19:21;;;;;;;42.15;26.85;;;7.10;99.90;;;;;;6217753;22;20022;-94
2022/11/14 21:21:47;;;;;;;41.38;27.35;;;7.10;99.90;;;;;;6245947;22;20018;-94
2022/11/14 21:24:16;;;;;;;39.65;26.10;;;7.10;99.90;;;;;;6246800;22;20339;-95
2022/11/14 21:26:44;;;;;;;40.25;26.95;;;7.10;99.90;;;;;;6247828;22;20134;-95
2022/11/14 21:29:12;;;;;;;43.28;27.48;;;7.10;99.90;;;;;;6247248;22;20015;-94
2022/11/14 21:31:42;;;;;;;38.78;25.73;;;7.10;99.90;;;;;;6221157;22;20035;-94
2022/11/14 21:34:13;;;;;;;42.97;26.23;;;7.10;99.90;;;;;;6221903;22;20016;-93
2022/11/14 21:36:40;;;;;;;35.67;24.83;;;7.20;99.90;;;;;;6222057;22;20038;-94
2022/11/14 21:39:06;;;;;;;36.00;23.35;;;7.10;99.90;;;;;;6220525;22;20332;-94
2022/11/14 21:41:32;;;;;;;34.80;23.77;;;7.20;99.90;;;;;;6222148;22;20031;-94
2022/11/14 21:44:00;;;;;;;34.35;24.75;;;7.20;99.90;;;;;;6247204;22;20050;-95
2022/11/14 21:46:26;;;;;;;37.85;24.10;;;7.10;99.90;;;;;;6221345;22;20113;-94
2022/11/14 21:48:53;;;;;;;37.75;24.70;;;7.20;99.90;;;;;;6221114;22;20046;-95
2022/11/14 21:51:22;;;;;;;36.58;23.58;;;7.40;99.90;;;;;;6222533;22;20339;-95
2022/11/14 21:53:53;;;;;;;35.65;24.08;;;7.80;99.90;;;;;;6221177;22;20103;-95
2022/11/14 21:56:21;;;;;;;35.40;23.13;;;7.20;99.90;;;;;;6222033;22;20016;-95
2022/11/14 21:58:48;;;;;;;33.33;23.40;;;7.20;99.90;;;;;;6221802;22;20015;-95
2022/11/14 22:04:11;;;;;;;37.65;23.05;;;7.20;99.90;;;;;;6246723;22;20103;-94
2022/11/14 22:06:37;;;;;;;34.67;24.70;;;7.30;99.90;;;;;;6221520;22;20059;-94
2022/11/14 22:09:03;;;;;;;36.80;23.52;;;7.30;99.90;;;;;;6222445;22;20120;-96
2022/11/14 22:11:29;;;;;;;35.35;23.92;;;7.30;99.90;;;;;;6247649;22;20019;-95
2022/11/14 22:13:56;;;;;;;35.72;23.83;;;7.30;99.90;;;;;;6246642;22;20015;-96
2022/11/14 22:16:22;;;;;;;38.95;23.33;;;7.30;99.90;;;;;;6220757;22;20072;-95
2022/11/14 22:18:51;;;;;;;32.90;23.40;;;7.30;99.90;;;;;;6220738;22;20023;-95
2022/11/14 22:21:17;;;;;;;35.45;23.95;;;7.30;99.90;;;;;;6221077;22;20019;-95
2022/11/14 22:23:43;;;;;;;32.95;22.38;;;7.50;99.90;;;;;;6247049;22;20018;-95
2022/11/14 22:26:10;;;;;;;33.58;22.40;;;7.30;99.90;;;;;;6247792;22;20028;-94
2022/11/14 22:28:36;;;;;;;38.28;22.38;;;7.30;99.90;;;;;;6221380;22;20503;-95
2022/11/14 22:31:13;;;;;;;33.97;22.73;;;7.30;99.90;;;;;;6222015;22;20024;-94
2022/11/14 22:33:41;;;;;;;31.25;23.05;;;7.30;99.90;;;;;;6221481;22;20048;-94
2022/11/14 22:36:10;;;;;;;30.55;22.23;;;7.40;99.90;;;;;;6220929;22;20023;-95
2022/11/14 22:38:39;;;;;;;33.60;22.20;;;7.40;99.90;;;;;;6221903;22;20020;-94
2022/11/14 22:41:08;;;;;;;31.23;22.35;;;7.70;99.90;;;;;;6221387;22;20019;-95
2022/11/14 22:43:34;;;;;;;33.10;23.63;;;7.40;99.90;;;;;;6221372;22;20016;-94
2022/11/14 22:46:00;;;;;;;32.58;21.67;;;7.70;99.90;;;;;;6247005;22;20016;-95
2022/11/14 22:48:28;;;;;;;31.00;21.63;;;7.50;99.90;;;;;;6220749;22;20035;-94
2022/11/14 22:51:02;;;;;;;29.50;20.45;;;7.50;99.90;;;;;;6221767;22;20506;-95
2022/11/14 22:53:28;;;;;;;;;;;7.50;99.90;;;;;;6222578;22;20439;-95
2022/11/14 22:55:54;;;;;;;33.22;21.25;;;8.00;99.90;;;;;;6219740;22;19919;-96
2022/11/14 22:58:23;;;;;;;32.20;21.10;;;7.40;99.90;;;;;;6246930;22;20154;-95
2022/11/14 23:00:50;;;;;;;28.50;21.30;;;8.40;99.90;;;;;;6220881;22;20535;-95
2022/11/14 23:03:17;;;;;;;33.15;22.90;;;7.10;99.90;;;;;;6220286;22;20458;-95
2022/11/14 23:05:43;;;;;;;35.22;22.77;;;7.50;99.90;;;;;;6221391;22;20030;-95
2022/11/14 23:08:09;;;;;;;30.15;22.17;;;7.40;99.90;;;;;;6246486;22;20344;-94
2022/11/14 23:10:35;;;;;;;31.02;22.25;;;7.50;99.90;;;;;;6246439;22;20046;-94
2022/11/14 23:13:02;;;;;;;32.10;23.45;;;8.30;99.90;;;;;;6246519;22;20023;-96
2022/11/14 23:15:28;;;;;;;32.45;22.75;;;7.50;99.90;;;;;;6247328;22;20051;-95
2022/11/14 23:17:53;;;;;;;31.60;22.10;;;7.50;99.90;;;;;;6219678;22;20051;-96
2022/11/14 23:20:19;;;;;;;36.42;23.05;;;7.40;99.90;;;;;;6246656;22;20031;-96
2022/11/14 23:22:45;;;;;;;35.25;22.33;;;8.30;99.90;;;;;;6246642;22;20019;-95
2022/11/14 23:25:11;;;;;;;33.72;22.98;;;7.40;99.90;;;;;;6244857;22;20019;-95
2022/11/14 23:27:37;;;;;;;32.17;22.42;;;7.50;99.90;;;;;;6246288;22;20019;-95
2022/11/14 23:30:03;;;;;;;32.33;21.48;;;8.30;99.90;;;;;;6246555;22;20015;-94
2022/11/14 23:32:29;;;;;;;32.40;22.17;;;7.50;99.90;;;;;;6218964;22;20448;-95
2022/11/14 23:34:55;;;;;;;34.03;22.35;;;7.50;99.90;;;;;;6221897;22;20027;-95
2022/11/14 23:37:20;;;;;;;31.77;21.88;;;8.50;99.90;;;;;;6246677;22;20077;-96
2022/11/14 23:39:46;;;;;;;30.15;21.48;;;7.50;99.90;;;;;;6246197;22;20450;-96
2022/11/14 23:42:12;;;;;;;34.15;22.40;;;7.40;99.90;;;;;;6246672;22;20098;-95
2022/11/14 23:44:38;;;;;;;34.38;23.10;;;8.40;99.90;;;;;;6246268;22;20012;-95
2022/11/14 23:47:04;;;;;;;33.03;22.00;;;7.40;99.90;;;;;;6245732;22;20019;-96
2022/11/14 23:49:30;;;;;;;31.02;22.17;;;7.40;99.90;;;;;;6246388;22;20070;-95
2022/11/14 23:51:56;;;;;;;40.45;22.85;;;7.50;99.90;;;;;;6245818;22;20049;-94
2022/11/14 23:54:21;;;;;;;31.73;21.73;;;7.70;99.90;;;;;;6245718;22;20014;-95
2022/11/14 23:56:47;;;;;;;35.10;22.65;;;7.50;99.90;;;;;;6245359;22;20034;-95
2022/11/14 23:59:13;;;;;;;32.58;23.08;;;7.40;99.90;;;;;;6245988;22;20019;-94
